Time;durP1;ratioP1;P1;durP2;ratioP2;P2;SDS_P1;SDS_P2;PMS_P1;PMS_P2;Temp;Humidity;BMP_temperature;BMP_pressure;BME280_temperature;BME280_humidity;BME280_pressure;Samples;Min_cycle;Max_cycle;Signal;HPM_P1;HPM_P2
2023/01/20 00:01:37;;;;;;;10.68;8.73;;;-0.70;99.90;;;;;;5110336;28;20104;-68
2023/01/20 00:04:02;;;;;;;12.35;8.68;;;-0.70;99.90;;;;;;5096844;28;20463;-68
2023/01/20 00:06:28;;;;;;;11.13;8.23;;;-0.70;99.90;;;;;;5109530;28;20058;-68
2023/01/20 00:08:55;;;;;;;12.85;8.77;;;-0.70;99.90;;;;;;5102130;28;20037;-68
2023/01/20 00:11:22;;;;;;;11.65;9.48;;;-0.70;99.90;;;;;;5111472;28;20073;-69
2023/01/20 00:13:51;;;;;;;9.25;8.32;;;-0.70;99.90;;;;;;5102801;28;20119;-68
2023/01/20 00:16:17;;;;;;;11.68;8.27;;;-0.70;99.90;;;;;;5095742;28;20470;-68
2023/01/20 00:18:43;;;;;;;12.93;9.40;;;-0.70;99.90;;;;;;5107856;28;20131;-68
2023/01/20 00:21:13;;;;;;;12.98;9.32;;;-0.60;99.90;;;;;;5109776;28;20087;-69
2023/01/20 00:23:39;;;;;;;12.98;9.13;;;-0.60;99.90;;;;;;5106518;28;20047;-68
2023/01/20 00:26:07;;;;;;;13.13;10.25;;;-0.60;99.90;;;;;;5096509;28;20051;-68
2023/01/20 00:28:34;;;;;;;10.57;9.47;;;-0.60;99.90;;;;;;5099516;28;20132;-68
2023/01/20 00:31:17;;;;;;;10.55;9.43;;;-0.60;99.90;;;;;;5095249;28;20067;-68
2023/01/20 00:33:44;;;;;;;12.25;10.05;;;-0.50;99.90;;;;;;5105163;28;20151;-68
2023/01/20 00:36:11;;;;;;;15.65;10.98;;;-0.50;99.90;;;;;;5104856;28;20047;-69
2023/01/20 00:38:37;;;;;;;16.90;11.43;;;-0.50;99.90;;;;;;5099065;28;20827;-69
2023/01/20 00:41:04;;;;;;;17.45;12.52;;;-0.50;99.90;;;;;;5105020;28;20381;-69
2023/01/20 00:43:29;;;;;;;14.77;12.27;;;-0.40;99.90;;;;;;5100909;28;20041;-69
2023/01/20 00:45:55;;;;;;;17.80;13.45;;;-0.40;99.90;;;;;;5093204;28;20048;-69
2023/01/20 00:48:21;;;;;;;22.67;14.45;;;-0.30;99.90;;;;;;5099191;28;20048;-69
2023/01/20 00:50:46;;;;;;;17.48;12.90;;;-0.30;99.90;;;;;;5090289;28;20044;-69
2023/01/20 00:53:12;;;;;;;22.75;15.23;;;-0.30;99.90;;;;;;5090634;28;20505;-69
2023/01/20 00:55:38;;;;;;;7.32;3.28;;;-0.20;99.90;;;;;;5096564;28;20062;-69
2023/01/20 00:58:04;;;;;;;19.83;14.77;;;-0.20;99.90;;;;;;5093223;28;20441;-69
2023/01/20 01:00:30;;;;;;;26.30;16.15;;;-0.20;99.90;;;;;;5109151;28;20047;-69
2023/01/20 01:02:55;;;;;;;19.25;15.30;;;-0.10;99.90;;;;;;5105546;28;20036;-69
2023/01/20 01:05:21;;;;;;;21.83;15.13;;;0.00;99.90;;;;;;5088229;28;20044;-69
2023/01/20 01:07:47;;;;;;;25.30;16.70;;;0.00;99.90;;;;;;5090393;28;20044;-69
2023/01/20 01:10:13;;;;;;;25.42;17.75;;;0.00;99.90;;;;;;5091281;28;20062;-69
2023/01/20 01:12:39;;;;;;;21.45;16.05;;;0.00;99.90;;;;;;5105578;28;20039;-69
2023/01/20 01:15:05;;;;;;;24.25;16.58;;;0.10;99.90;;;;;;5100764;28;20436;-69
2023/01/20 01:17:30;;;;;;;28.10;17.70;;;0.10;99.90;;;;;;5102306;28;20476;-69
2023/01/20 01:19:56;;;;;;;25.00;18.20;;;0.10;99.90;;;;;;5102281;28;20047;-69
2023/01/20 01:22:22;;;;;;;25.88;19.13;;;0.10;99.90;;;;;;5096998;28;20035;-69
2023/01/20 01:24:47;;;;;;;27.52;18.80;;;0.20;99.90;;;;;;5096586;28;20949;-69
2023/01/20 01:27:13;;;;;;;29.95;18.20;;;0.20;99.90;;;;;;5096211;28;20050;-69
2023/01/20 01:29:39;;;;;;;30.77;20.10;;;0.20;99.90;;;;;;5103314;28;20054;-69
2023/01/20 01:32:06;;;;;;;30.60;20.52;;;0.30;99.90;;;;;;5103672;28;20040;-70
2023/01/20 01:34:32;;;;;;;28.83;19.33;;;0.30;99.90;;;;;;5100172;28;20059;-69
2023/01/20 01:36:58;;;;;;;29.30;20.08;;;0.30;99.90;;;;;;5106190;28;20043;-69
2023/01/20 01:39:24;;;;;;;30.45;19.00;;;0.30;99.90;;;;;;5091848;28;20589;-70
2023/01/20 01:41:50;;;;;;;35.58;21.70;;;0.30;99.90;;;;;;5101973;28;20162;-69
2023/01/20 01:44:16;;;;;;;27.88;20.10;;;0.40;99.90;;;;;;5100663;28;20047;-70
2023/01/20 01:46:42;;;;;;;36.50;23.05;;;0.40;99.90;;;;;;5092205;28;20047;-70
2023/01/20 01:49:22;;;;;;;34.38;21.17;;;0.40;99.90;;;;;;5095918;28;20099;-71
2023/01/20 01:52:00;;;;;;;28.02;20.00;;;0.40;99.90;;;;;;5092387;28;20047;-70
2023/01/20 01:54:31;;;;;;;34.80;22.15;;;0.50;99.90;;;;;;5093607;28;20384;-70
2023/01/20 01:56:57;;;;;;;31.60;21.60;;;0.50;99.90;;;;;;5091822;28;20542;-69
2023/01/20 01:59:22;;;;;;;32.17;22.42;;;0.50;99.90;;;;;;5107075;28;20047;-69
2023/01/20 02:01:51;;;;;;;34.30;22.67;;;0.50;99.90;;;;;;5107356;28;20051;-70
2023/01/20 02:04:20;;;;;;;34.25;22.33;;;0.50;99.90;;;;;;5098091;28;20122;-70
2023/01/20 02:06:50;;;;;;;29.40;20.63;;;0.50;99.90;;;;;;5102108;28;20044;-70
2023/01/20 02:09:16;;;;;;;26.88;18.92;;;0.50;99.90;;;;;;5105680;28;20160;-70
2023/01/20 02:11:47;;;;;;;32.30;21.55;;;0.50;99.90;;;;;;5104755;28;20488;-70
2023/01/20 02:14:16;;;;;;;31.17;20.38;;;0.50;99.90;;;;;;5090771;28;20052;-70
2023/01/20 02:16:56;;;;;;;38.97;20.77;;;0.60;99.90;;;;;;5102998;28;20048;-70
2023/01/20 02:19:44;;;;;;;32.15;21.38;;;0.60;99.90;;;;;;5088512;28;20051;-70
2023/01/20 02:22:31;;;;;;;30.05;19.50;;;0.60;99.90;;;;;;5045146;28;20052;-69
2023/01/20 02:25:16;;;;;;;24.23;18.25;;;0.60;99.90;;;;;;5105281;28;20043;-69
2023/01/20 02:28:00;;;;;;;25.83;19.48;;;0.60;99.90;;;;;;5103353;28;20075;-69
2023/01/20 02:30:46;;;;;;;25.75;17.77;;;0.60;99.90;;;;;;5101747;28;20051;-70
2023/01/20 02:33:19;;;;;;;23.15;18.15;;;0.60;99.90;;;;;;5099241;28;20064;-68
2023/01/20 02:35:52;;;;;;;24.30;17.77;;;0.50;99.90;;;;;;5104322;28;20498;-69
2023/01/20 02:38:32;;;;;;;22.17;17.10;;;0.60;99.90;;;;;;5105239;27;20051;-69
2023/01/20 02:41:24;;;;;;;27.45;17.65;;;0.60;99.90;;;;;;5093801;28;20473;-69
2023/01/20 02:44:02;;;;;;;21.98;16.63;;;0.60;99.90;;;;;;5089380;28;20036;-69
2023/01/20 02:46:35;;;;;;;27.42;18.70;;;0.50;99.90;;;;;;5101659;28;20047;-69
2023/01/20 02:49:22;;;;;;;25.38;18.70;;;0.60;99.90;;;;;;5106148;28;20142;-69
2023/01/20 02:51:59;;;;;;;27.83;17.15;;;0.60;99.90;;;;;;5098575;28;20036;-69
2023/01/20 02:54:29;;;;;;;10.57;5.55;;;0.60;99.90;;;;;;5087644;28;20040;-69
2023/01/20 02:56:58;;;;;;;25.73;18.15;;;0.50;99.90;;;;;;5093245;28;20063;-69
2023/01/20 02:59:29;;;;;;;29.65;21.00;;;0.60;99.90;;;;;;5106722;28;20496;-69
2023/01/20 03:02:14;;;;;;;27.88;19.90;;;0.60;99.90;;;;;;5107436;27;20396;-69
2023/01/20 03:05:10;;;;;;;30.85;18.90;;;0.60;99.90;;;;;;5104231;28;20047;-70
2023/01/20 03:07:40;;;;;;;32.78;20.15;;;0.60;99.90;;;;;;5083289;28;20174;-69
2023/01/20 03:10:09;;;;;;;30.92;21.48;;;0.60;99.90;;;;;;5099122;28;20155;-69
2023/01/20 03:12:43;;;;;;;24.58;19.10;;;0.60;99.90;;;;;;5107609;28;20111;-69
2023/01/20 03:15:19;;;;;;;31.88;22.17;;;0.60;99.90;;;;;;5103155;28;20036;-69
2023/01/20 03:17:44;;;;;;;31.60;20.48;;;0.60;99.90;;;;;;5103822;28;20048;-69
2023/01/20 03:20:10;;;;;;;32.35;21.20;;;0.60;99.90;;;;;;5104443;28;20039;-69
2023/01/20 03:22:36;;;;;;;31.77;21.65;;;0.60;99.90;;;;;;5105070;28;20086;-70
2023/01/20 03:25:05;;;;;;;29.60;21.98;;;0.50;99.90;;;;;;5098183;28;20079;-69
2023/01/20 03:27:31;;;;;;;33.53;21.13;;;0.60;99.90;;;;;;5102041;28;20392;-70
2023/01/20 03:29:56;;;;;;;32.45;22.80;;;0.50;99.90;;;;;;5099049;28;20032;-69
2023/01/20 03:32:25;;;;;;;34.47;23.27;;;0.50;99.90;;;;;;5099313;28;20609;-69
2023/01/20 03:34:54;;;;;;;33.05;22.63;;;0.60;99.90;;;;;;5087213;28;20048;-69
2023/01/20 03:37:20;;;;;;;31.20;22.77;;;0.50;99.90;;;;;;5092309;28;20040;-69
2023/01/20 03:39:46;;;;;;;33.83;21.85;;;0.50;99.90;;;;;;5089587;28;20074;-69
2023/01/20 03:42:26;;;;;;;36.28;21.92;;;0.50;99.90;;;;;;5092122;28;20052;-69
2023/01/20 03:44:55;;;;;;;32.50;22.23;;;0.50;99.90;;;;;;5086693;28;20592;-69
2023/01/20 03:47:26;;;;;;;;;;;0.50;99.90;;;;;;5102325;28;20051;-70
2023/01/20 03:50:22;;;;;;;31.90;22.25;;;0.40;99.90;;;;;;5089727;28;20023;-69
2023/01/20 03:52:54;;;;;;;19.65;7.93;;;0.50;99.90;;;;;;5096658;28;20051;-70
2023/01/20 03:55:40;;;;;;;38.90;24.27;;;0.40;99.90;;;;;;5088206;28;20051;-69
2023/01/20 03:58:10;;;;;;;37.55;24.67;;;0.40;99.90;;;;;;5098505;28;20044;-69
2023/01/20 04:00:41;;;;;;;34.72;23.33;;;0.40;99.90;;;;;;5095096;28;20512;-69
2023/01/20 04:03:14;;;;;;;35.10;23.00;;;0.50;99.90;;;;;;5078455;28;20048;-69
2023/01/20 04:05:42;;;;;;;39.13;25.42;;;0.40;99.90;;;;;;5102972;28;20404;-69
2023/01/20 04:08:09;;;;;;;35.30;25.17;;;0.50;99.90;;;;;;5100162;28;20044;-69
2023/01/20 04:10:39;;;;;;;38.17;24.80;;;0.50;99.90;;;;;;5106631;28;20051;-69
2023/01/20 04:13:05;;;;;;;38.83;24.80;;;0.50;99.90;;;;;;5097676;28;20044;-69
2023/01/20 04:15:38;;;;;;;35.78;23.13;;;0.50;99.90;;;;;;5102923;28;20040;-69
2023/01/20 04:18:12;;;;;;;37.25;22.10;;;0.50;99.90;;;;;;5106965;28;20044;-69
2023/01/20 04:20:42;;;;;;;38.53;24.33;;;0.50;99.90;;;;;;5096454;28;20501;-69
2023/01/20 04:23:28;;;;;;;36.42;24.42;;;0.50;99.90;;;;;;5103253;28;20047;-69
2023/01/20 04:25:54;;;;;;;36.42;23.98;;;0.50;99.90;;;;;;5089471;28;20117;-69
2023/01/20 04:28:19;;;;;;;45.45;24.50;;;0.50;99.90;;;;;;5106383;28;20074;-69
2023/01/20 04:30:45;;;;;;;40.00;23.77;;;0.50;99.90;;;;;;5095852;28;20654;-69
2023/01/20 04:33:11;;;;;;;34.80;22.48;;;0.50;99.90;;;;;;5103625;28;20092;-69
2023/01/20 04:35:36;;;;;;;36.53;22.85;;;0.50;99.90;;;;;;5092406;28;20052;-69
2023/01/20 04:38:02;;;;;;;42.65;24.42;;;0.50;99.90;;;;;;5106459;28;20047;-69
2023/01/20 04:40:27;;;;;;;31.08;22.77;;;0.50;99.90;;;;;;5100148;28;20923;-69
2023/01/20 04:42:53;;;;;;;43.22;24.23;;;0.50;99.90;;;;;;5103470;28;20043;-69
2023/01/20 04:45:19;;;;;;;32.15;21.17;;;0.50;99.90;;;;;;5109829;28;20533;-69
2023/01/20 04:47:44;;;;;;;35.22;21.50;;;0.50;99.90;;;;;;5092452;28;20093;-69
2023/01/20 04:50:11;;;;;;;36.78;22.65;;;0.60;99.90;;;;;;5108806;28;20069;-69
2023/01/20 04:52:37;;;;;;;33.60;22.35;;;0.50;99.90;;;;;;5104707;28;20432;-69
2023/01/20 04:55:06;;;;;;;30.83;20.48;;;0.60;99.90;;;;;;5109220;28;20051;-69
2023/01/20 04:57:31;;;;;;;38.22;20.38;;;0.60;99.90;;;;;;5095477;28;20130;-69
2023/01/20 04:59:57;;;;;;;28.63;19.83;;;0.50;99.90;;;;;;5105901;28;20123;-69
2023/01/20 05:02:23;;;;;;;27.75;17.90;;;0.50;99.90;;;;;;5107305;28;20404;-69
2023/01/20 05:04:48;;;;;;;28.80;19.48;;;0.50;99.90;;;;;;5096076;28;20040;-69
2023/01/20 05:07:14;;;;;;;28.17;18.35;;;0.50;99.90;;;;;;5105021;28;20047;-69
2023/01/20 05:09:40;;;;;;;26.85;18.38;;;0.50;99.90;;;;;;5108331;28;20126;-69
2023/01/20 05:12:06;;;;;;;27.13;18.83;;;0.50;99.90;;;;;;5108814;28;20112;-69
2023/01/20 05:14:32;;;;;;;32.53;19.15;;;0.60;99.90;;;;;;5090297;28;20040;-69
2023/01/20 05:16:58;;;;;;;33.47;21.33;;;0.50;99.90;;;;;;5107529;28;20533;-69
2023/01/20 05:19:23;;;;;;;30.70;19.17;;;0.60;99.90;;;;;;5105814;28;20092;-69
2023/01/20 05:21:49;;;;;;;38.35;21.40;;;0.50;99.90;;;;;;5097645;28;20042;-69
2023/01/20 05:24:15;;;;;;;32.38;20.38;;;0.60;99.90;;;;;;5103264;28;20105;-69
2023/01/20 05:26:40;;;;;;;30.98;19.33;;;0.50;99.90;;;;;;5109575;27;20400;-69
2023/01/20 05:29:06;;;;;;;29.45;19.27;;;0.60;99.90;;;;;;5102154;28;20055;-69
2023/01/20 05:31:32;;;;;;;30.83;19.55;;;0.60;99.90;;;;;;5108237;28;20446;-69
2023/01/20 05:33:58;;;;;;;28.63;18.25;;;0.60;99.90;;;;;;5104235;28;20048;-69
2023/01/20 05:36:23;;;;;;;28.45;18.55;;;0.60;99.90;;;;;;5107957;28;20051;-69
2023/01/20 05:38:49;;;;;;;31.27;20.52;;;0.60;99.90;;;;;;5101994;28;20528;-69
2023/01/20 05:41:15;;;;;;;27.83;19.52;;;0.60;99.90;;;;;;5106171;28;20105;-69
2023/01/20 05:43:40;;;;;;;32.92;21.05;;;0.60;99.90;;;;;;5094971;28;20434;-69
2023/01/20 05:46:06;;;;;;;30.55;19.52;;;0.60;99.90;;;;;;5100481;28;20048;-69
2023/01/20 05:48:32;;;;;;;11.90;5.43;;;0.60;99.90;;;;;;5108081;28;20039;-69
2023/01/20 05:50:58;;;;;;;30.42;19.92;;;0.60;99.90;;;;;;5097188;28;20048;-69
2023/01/20 05:53:23;;;;;;;30.77;19.73;;;0.60;99.90;;;;;;5105183;28;20476;-69
2023/01/20 05:55:56;;;;;;;34.50;21.17;;;0.60;99.90;;;;;;5101669;28;20039;-69
2023/01/20 05:58:22;;;;;;;31.42;20.10;;;0.60;99.90;;;;;;5099962;28;20047;-70
2023/01/20 06:00:48;;;;;;;31.02;20.17;;;0.60;99.90;;;;;;5102311;28;20409;-69
2023/01/20 06:03:14;;;;;;;30.52;21.02;;;0.60;99.90;;;;;;5073260;28;20134;-69
2023/01/20 06:05:39;;;;;;;31.02;19.80;;;0.60;99.90;;;;;;5104083;28;20051;-69
2023/01/20 06:08:05;;;;;;;31.58;21.50;;;0.60;99.90;;;;;;5106896;28;20051;-69
2023/01/20 06:10:31;;;;;;;28.85;19.27;;;0.60;99.90;;;;;;5107387;28;20089;-69
2023/01/20 06:12:56;;;;;;;34.25;22.55;;;0.70;99.90;;;;;;5094780;28;20089;-69
2023/01/20 06:15:23;;;;;;;35.72;22.83;;;0.70;99.90;;;;;;5101884;28;20051;-70
2023/01/20 06:17:54;;;;;;;32.00;22.95;;;0.70;99.90;;;;;;5106664;28;20058;-70
2023/01/20 06:20:19;;;;;;;38.13;24.35;;;0.70;99.90;;;;;;5101574;28;20122;-69
2023/01/20 06:22:46;;;;;;;41.15;24.35;;;0.70;99.90;;;;;;5090875;28;20476;-69
2023/01/20 06:25:12;;;;;;;41.35;25.25;;;0.70;99.90;;;;;;5088273;28;20122;-69
2023/01/20 06:27:37;;;;;;;37.13;24.58;;;0.70;99.90;;;;;;5087876;28;20102;-69
2023/01/20 06:30:05;;;;;;;43.47;26.17;;;0.70;99.90;;;;;;5101012;28;20047;-69
2023/01/20 06:32:30;;;;;;;40.60;27.15;;;0.70;99.90;;;;;;5100086;28;20058;-70
2023/01/20 06:34:56;;;;;;;39.70;25.08;;;0.70;99.90;;;;;;5098048;28;20056;-69
2023/01/20 06:37:22;;;;;;;42.88;27.27;;;0.70;99.90;;;;;;5092090;28;20062;-69
2023/01/20 06:39:48;;;;;;;43.47;27.02;;;0.70;99.90;;;;;;5089738;28;20039;-69
2023/01/20 06:42:14;;;;;;;41.75;26.13;;;0.70;99.90;;;;;;5108298;28;20150;-69
2023/01/20 06:44:55;;;;;;;39.80;27.00;;;0.70;99.90;;;;;;5057064;28;20075;-69
2023/01/20 06:47:20;;;;;;;43.20;27.70;;;0.70;99.90;;;;;;5079904;28;20128;-70
2023/01/20 06:49:47;;;;;;;45.88;27.95;;;0.70;99.90;;;;;;5101664;28;20044;-69
2023/01/20 06:52:12;;;;;;;48.35;28.70;;;0.70;99.90;;;;;;5105156;28;20126;-70
2023/01/20 06:54:38;;;;;;;45.85;28.05;;;0.70;99.90;;;;;;5103241;28;20090;-69
2023/01/20 06:57:04;;;;;;;41.90;25.80;;;0.70;99.90;;;;;;5101324;28;20449;-70
2023/01/20 06:59:29;;;;;;;43.60;27.30;;;0.70;99.90;;;;;;5106611;28;20116;-70
2023/01/20 07:01:55;;;;;;;49.35;29.70;;;0.70;99.90;;;;;;5106829;28;20539;-70
2023/01/20 07:04:21;;;;;;;47.22;27.83;;;0.70;99.90;;;;;;5102259;28;20032;-70
2023/01/20 07:06:46;;;;;;;50.55;31.10;;;0.70;99.90;;;;;;5102354;28;20673;-70
2023/01/20 07:09:12;;;;;;;46.67;29.60;;;0.70;99.90;;;;;;5088099;28;20126;-70
2023/01/20 07:11:39;;;;;;;53.40;32.03;;;0.70;99.90;;;;;;5100194;28;20508;-70
2023/01/20 07:14:05;;;;;;;49.17;30.30;;;0.70;99.90;;;;;;5105710;28;20576;-69
2023/01/20 07:16:32;;;;;;;53.42;30.95;;;0.70;99.90;;;;;;5089360;28;20172;-69
2023/01/20 07:18:58;;;;;;;52.28;31.60;;;0.70;99.90;;;;;;5100269;28;20541;-69
2023/01/20 07:21:24;;;;;;;49.92;30.05;;;0.70;99.90;;;;;;5080316;28;20040;-69
2023/01/20 07:23:51;;;;;;;56.25;32.97;;;0.70;99.90;;;;;;5095939;28;20086;-70
2023/01/20 07:26:19;;;;;;;51.38;33.03;;;0.70;99.90;;;;;;5106968;28;20551;-70
2023/01/20 07:28:46;;;;;;;69.75;36.67;;;0.70;99.90;;;;;;5093315;28;20040;-69
2023/01/20 07:31:17;;;;;;;61.30;35.95;;;0.70;99.90;;;;;;5106897;28;20561;-69
2023/01/20 07:33:44;;;;;;;54.42;33.58;;;0.80;99.90;;;;;;5090010;28;20109;-70
2023/01/20 07:36:11;;;;;;;59.38;33.60;;;0.80;99.90;;;;;;5097611;28;20059;-69
2023/01/20 07:38:37;;;;;;;58.13;35.87;;;0.80;99.90;;;;;;5093377;28;20043;-69
2023/01/20 07:41:06;;;;;;;58.70;36.58;;;0.80;99.90;;;;;;5099590;28;20424;-69
2023/01/20 07:43:32;;;;;;;58.22;35.78;;;0.80;99.90;;;;;;5104898;28;20062;-69
2023/01/20 07:46:03;;;;;;;65.28;37.08;;;0.80;99.90;;;;;;5094892;28;20085;-69
2023/01/20 07:48:30;;;;;;;56.75;36.67;;;0.80;99.90;;;;;;5104150;28;20054;-69
2023/01/20 07:51:01;;;;;;;61.87;37.47;;;0.80;99.90;;;;;;5106387;28;20035;-69
2023/01/20 07:53:36;;;;;;;56.50;35.95;;;0.80;99.90;;;;;;5106499;28;20297;-70
2023/01/20 07:56:07;;;;;;;59.72;37.10;;;0.80;99.90;;;;;;5100569;28;20076;-69
2023/01/20 07:58:33;;;;;;;60.50;36.33;;;0.90;99.90;;;;;;5107220;28;20043;-70
2023/01/20 08:01:13;;;;;;;62.80;36.17;;;0.80;99.90;;;;;;5101474;28;20044;-69
2023/01/20 08:03:39;;;;;;;70.32;43.83;;;0.90;99.90;;;;;;5104429;28;20082;-70
2023/01/20 08:06:08;;;;;;;68.43;40.92;;;0.90;99.90;;;;;;5104192;28;20055;-69
2023/01/20 08:08:33;;;;;;;63.88;39.28;;;0.90;99.90;;;;;;5104274;28;20044;-71
2023/01/20 08:11:00;;;;;;;69.28;42.85;;;0.90;99.90;;;;;;5091658;28;20101;-70
2023/01/20 08:13:27;;;;;;;58.97;37.80;;;0.90;99.90;;;;;;5109181;28;20163;-70
2023/01/20 08:15:53;;;;;;;62.72;37.15;;;0.90;99.90;;;;;;5097450;28;20052;-70
2023/01/20 08:18:18;;;;;;;59.58;37.88;;;0.90;99.90;;;;;;5104641;28;20100;-70
2023/01/20 08:20:44;;;;;;;66.40;38.33;;;0.90;99.90;;;;;;5087023;28;20043;-71
2023/01/20 08:23:10;;;;;;;66.43;39.70;;;1.00;99.90;;;;;;5096463;28;20044;-70
2023/01/20 08:25:36;;;;;;;70.43;39.55;;;1.00;99.90;;;;;;5087902;28;20518;-71
2023/01/20 08:28:01;;;;;;;30.10;13.38;;;1.00;99.90;;;;;;5104105;28;20050;-70
2023/01/20 08:30:27;;;;;;;66.90;37.70;;;1.00;99.90;;;;;;5096329;28;20474;-71
2023/01/20 08:32:53;;;;;;;65.55;37.70;;;1.00;99.90;;;;;;5087633;28;20477;-71
2023/01/20 08:35:19;;;;;;;72.80;39.53;;;1.00;99.90;;;;;;5109659;27;20156;-71
2023/01/20 08:37:45;;;;;;;64.93;35.25;;;1.00;99.90;;;;;;5102121;28;20040;-71
2023/01/20 08:40:11;;;;;;;66.13;39.72;;;1.00;99.90;;;;;;5095841;28;20089;-70
2023/01/20 08:42:37;;;;;;;69.35;40.72;;;1.00;99.90;;;;;;5089559;28;20036;-71
2023/01/20 08:45:06;;;;;;;66.22;39.45;;;1.00;99.90;;;;;;5103550;28;20543;-72
2023/01/20 08:47:35;;;;;;;58.67;38.97;;;1.10;99.90;;;;;;5107656;28;20489;-73
2023/01/20 08:50:02;;;;;;;64.68;38.38;;;1.00;99.90;;;;;;5101248;28;20526;-72
2023/01/20 08:52:28;;;;;;;66.53;35.90;;;1.10;99.90;;;;;;5102851;28;20157;-72
2023/01/20 08:54:54;;;;;;;61.97;37.58;;;1.10;99.90;;;;;;5088599;28;20052;-72
2023/01/20 08:57:20;;;;;;;57.45;36.42;;;1.10;99.90;;;;;;5090776;28;20063;-72
2023/01/20 08:59:46;;;;;;;24.15;10.52;;;1.10;99.90;;;;;;5097410;28;20051;-71
2023/01/20 09:02:12;;;;;;;62.45;35.88;;;1.10;99.90;;;;;;5092697;28;20148;-72
2023/01/20 09:04:38;;;;;;;66.38;36.03;;;1.10;99.90;;;;;;5118987;27;20049;-71
2023/01/20 09:07:05;;;;;;;66.53;37.10;;;1.10;99.90;;;;;;5073224;28;20047;-71
2023/01/20 09:09:30;;;;;;;68.90;38.70;;;1.10;99.90;;;;;;5101305;28;20100;-71
2023/01/20 09:11:56;;;;;;;59.88;34.78;;;1.10;99.90;;;;;;5092689;28;20432;-71
2023/01/20 09:14:23;;;;;;;60.85;33.95;;;1.10;99.90;;;;;;5102298;28;20047;-71
2023/01/20 09:16:49;;;;;;;62.53;35.90;;;1.10;99.90;;;;;;5107632;28;20054;-71
2023/01/20 09:19:15;;;;;;;62.78;38.38;;;1.10;99.90;;;;;;5104481;28;20040;-71
2023/01/20 09:21:42;;;;;;;62.85;36.28;;;1.10;99.90;;;;;;5089486;28;20047;-71
2023/01/20 09:24:08;;;;;;;59.85;36.47;;;1.10;99.90;;;;;;5101249;28;20113;-70
2023/01/20 09:26:37;;;;;;;66.85;38.47;;;1.10;99.90;;;;;;5103016;28;20043;-70
2023/01/20 09:29:10;;;;;;;64.40;35.50;;;1.10;99.90;;;;;;5107087;28;20111;-70
2023/01/20 09:31:50;;;;;;;63.20;37.60;;;1.10;99.90;;;;;;5103839;28;20043;-70
2023/01/20 09:34:23;;;;;;;54.70;35.55;;;1.10;99.90;;;;;;5104104;28;20066;-70
2023/01/20 09:36:51;;;;;;;72.55;38.20;;;1.10;99.90;;;;;;5086285;28;20047;-71
2023/01/20 09:45:37;;;;;;;26.70;14.23;;;1.20;99.90;;;;;;5092120;28;20047;-70
2023/01/20 09:53:57;;;;;;;66.43;37.58;;;1.10;99.90;;;;;;5094455;28;20476;-70
2023/01/20 09:56:26;;;;;;;29.48;12.23;;;1.20;99.90;;;;;;5095518;28;20052;-69
2023/01/20 09:59:01;;;;;;;66.47;40.22;;;1.10;99.90;;;;;;5094289;28;20085;-70
2023/01/20 10:01:36;;;;;;;61.30;38.65;;;1.20;99.90;;;;;;5106206;28;20047;-70
2023/01/20 10:04:31;;;;;;;59.85;37.78;;;1.20;99.90;;;;;;5102788;28;20085;-70
2023/01/20 10:07:01;;;;;;;58.80;36.08;;;1.20;99.90;;;;;;5099228;28;20047;-69
2023/01/20 10:10:03;;;;;;;75.75;41.85;;;1.20;99.90;;;;;;5094480;28;20584;-70
2023/01/20 10:13:04;;;;;;;69.95;39.25;;;1.20;99.90;;;;;;5002809;28;20124;-70
2023/01/20 10:15:34;;;;;;;80.78;38.67;;;1.20;99.90;;;;;;5100765;28;20038;-69
2023/01/20 10:18:20;;;;;;;68.00;39.28;;;1.20;99.90;;;;;;5093461;28;20086;-69
2023/01/20 10:20:54;;;;;;;41.15;18.48;;;1.20;99.90;;;;;;5100295;28;20837;-69
2023/01/20 10:23:34;;;;;;;76.28;40.47;;;1.20;99.90;;;;;;5103091;28;20047;-69
2023/01/20 10:26:29;;;;;;;71.20;41.40;;;1.20;99.90;;;;;;5098964;28;20048;-69
2023/01/20 10:29:01;;;;;;;70.57;38.60;;;1.20;99.90;;;;;;5099767;28;20039;-69
2023/01/20 10:31:31;;;;;;;66.43;41.40;;;1.20;99.90;;;;;;5091313;28;20047;-69
2023/01/20 10:34:12;;;;;;;71.57;44.95;;;1.20;99.90;;;;;;5092478;28;20072;-69
2023/01/20 10:36:42;;;;;;;82.00;53.03;;;1.20;99.90;;;;;;5101768;28;20048;-69
2023/01/20 10:39:33;;;;;;;72.47;42.15;;;1.20;99.90;;;;;;5104561;28;20051;-69
2023/01/20 10:42:04;;;;;;;82.68;53.20;;;1.20;99.90;;;;;;5103947;28;20040;-68
2023/01/20 10:44:34;;;;;;;81.68;50.05;;;1.30;99.90;;;;;;5105466;28;20497;-68
2023/01/20 10:47:06;;;;;;;48.15;20.95;;;1.30;99.90;;;;;;5090991;28;20118;-68
2023/01/20 10:50:09;;;;;;;67.30;39.53;;;1.30;99.90;;;;;;5102259;28;20079;-68
2023/01/20 10:52:54;;;;;;;68.78;39.30;;;1.30;99.90;;;;;;5089686;28;20148;-69
2023/01/20 10:55:28;;;;;;;66.45;37.83;;;1.30;99.90;;;;;;5104455;28;20560;-68
2023/01/20 10:58:19;;;;;;;67.93;37.10;;;1.30;99.90;;;;;;5092367;28;20044;-68
2023/01/20 11:00:44;;;;;;;47.78;19.73;;;1.30;99.90;;;;;;5104895;28;20044;-69
2023/01/20 11:03:16;;;;;;;67.00;38.78;;;1.30;99.90;;;;;;5094119;28;20051;-69
2023/01/20 11:05:42;;;;;;;65.32;40.55;;;1.30;99.90;;;;;;5099141;28;20051;-69
2023/01/20 11:08:15;;;;;;;74.00;41.28;;;1.30;99.90;;;;;;5096997;28;20760;-68
2023/01/20 11:10:41;;;;;;;79.15;42.60;;;1.40;99.90;;;;;;5101788;28;20465;-67
2023/01/20 11:13:09;;;;;;;75.40;43.45;;;1.40;99.90;;;;;;5092737;28;20047;-68
2023/01/20 11:15:42;;;;;;;62.38;37.33;;;1.40;99.90;;;;;;5101839;28;20039;-68
2023/01/20 11:18:13;;;;;;;67.63;37.70;;;1.40;99.90;;;;;;5088338;28;20051;-68
2023/01/20 11:20:51;;;;;;;70.05;39.53;;;1.40;99.90;;;;;;5092384;28;20590;-68
2023/01/20 11:23:23;;;;;;;67.15;37.13;;;1.40;99.90;;;;;;5087913;28;20082;-69
2023/01/20 11:26:21;;;;;;;68.82;38.05;;;1.50;99.90;;;;;;5098454;28;20056;-69
2023/01/20 11:28:58;;;;;;;71.45;40.58;;;1.50;99.90;;;;;;5097051;28;20051;-69
2023/01/20 11:31:56;;;;;;;69.75;37.75;;;1.50;99.90;;;;;;5102067;28;20048;-69
2023/01/20 11:34:31;;;;;;;38.70;20.42;;;1.50;99.90;;;;;;5079567;28;20095;-69
2023/01/20 11:37:09;;;;;;;66.35;38.47;;;1.50;99.90;;;;;;5097842;28;20063;-69
2023/01/20 11:39:43;;;;;;;70.40;39.13;;;1.50;99.90;;;;;;5086763;28;20043;-69
2023/01/20 11:42:17;;;;;;;64.90;39.00;;;1.60;99.90;;;;;;5104125;28;20543;-69
2023/01/20 11:44:51;;;;;;;50.90;20.63;;;1.60;99.90;;;;;;5110718;27;20042;-69
2023/01/20 11:47:26;;;;;;;63.05;38.00;;;1.60;99.90;;;;;;5111613;28;20046;-69
2023/01/20 11:50:07;;;;;;;72.40;41.97;;;1.60;99.90;;;;;;5105055;28;20057;-68
2023/01/20 11:52:38;;;;;;;69.85;39.97;;;1.60;99.90;;;;;;5100646;28;20059;-69
2023/01/20 11:55:19;;;;;;;72.63;40.80;;;1.70;99.90;;;;;;5105431;28;20062;-69
2023/01/20 11:57:54;;;;;;;70.38;39.55;;;1.70;99.90;;;;;;5110707;27;20078;-69
2023/01/20 12:00:23;;;;;;;61.78;34.90;;;1.70;99.90;;;;;;5097482;28;20039;-69
2023/01/20 12:03:03;;;;;;;;;;;1.70;99.90;;;;;;5103887;28;20048;-69
2023/01/20 12:05:51;;;;;;;60.53;34.03;;;1.70;99.90;;;;;;5097076;28;19924;-69
2023/01/20 12:08:42;;;;;;;65.55;37.10;;;1.70;99.90;;;;;;5102558;28;20080;-69
2023/01/20 12:11:10;;;;;;;62.90;36.60;;;1.70;99.90;;;;;;5110009;28;20040;-69
2023/01/20 12:14:22;;;;;;;65.60;33.90;;;1.70;99.90;;;;;;5113258;27;20050;-69
2023/01/20 12:17:19;;;;;;;63.90;35.75;;;1.70;99.90;;;;;;5110713;28;20204;-69
2023/01/20 12:19:51;;;;;;;66.95;36.25;;;1.70;99.90;;;;;;5110234;28;20077;-69
2023/01/20 12:22:23;;;;;;;34.53;17.65;;;1.70;99.90;;;;;;5109499;28;20085;-69
2023/01/20 12:25:07;;;;;;;67.70;38.80;;;1.70;99.90;;;;;;5112261;28;20051;-68
2023/01/20 12:27:42;;;;;;;63.25;36.95;;;1.70;99.90;;;;;;5111380;28;20057;-69
2023/01/20 12:30:37;;;;;;;59.47;33.55;;;1.70;99.90;;;;;;5104640;27;20090;-68
2023/01/20 12:33:03;;;;;;;58.80;32.10;;;1.70;99.90;;;;;;5096648;28;20091;-66
2023/01/20 12:35:36;;;;;;;61.45;32.47;;;1.70;99.90;;;;;;5111132;28;20055;-69
2023/01/20 12:38:17;;;;;;;51.88;31.40;;;1.70;99.90;;;;;;5111032;28;20050;-69
2023/01/20 12:40:47;;;;;;;62.72;33.55;;;1.70;99.90;;;;;;5110406;28;20111;-69
2023/01/20 12:43:55;;;;;;;62.20;33.83;;;1.70;99.90;;;;;;5112465;28;20059;-69
2023/01/20 12:46:32;;;;;;;60.47;36.17;;;1.70;99.90;;;;;;5086900;28;20096;-69
2023/01/20 12:49:28;;;;;;;61.58;36.17;;;1.80;99.90;;;;;;5113593;27;20057;-69
2023/01/20 12:52:24;;;;;;;62.78;36.10;;;1.80;99.90;;;;;;5097473;28;20048;-69
2023/01/20 12:55:21;;;;;;;35.88;16.25;;;1.80;99.90;;;;;;5089236;28;20051;-69
2023/01/20 12:58:07;;;;;;;28.10;14.05;;;1.70;99.90;;;;;;5094524;28;20043;-68
2023/01/20 13:00:58;;;;;;;69.22;36.67;;;1.70;99.90;;;;;;5100416;28;20048;-68
2023/01/20 13:03:52;;;;;;;58.25;34.97;;;1.70;99.90;;;;;;5097175;27;20489;-68
2023/01/20 13:06:35;;;;;;;75.63;41.20;;;1.70;99.90;;;;;;5099934;28;20503;-68
2023/01/20 13:09:13;;;;;;;59.63;33.63;;;1.70;99.90;;;;;;5079548;28;20105;-69
2023/01/20 13:11:57;;;;;;;55.55;33.75;;;1.70;99.90;;;;;;5101633;28;20048;-69